Wilsonburg, West Virginia
Current Conditions -  °F | °C
As of 4:53 PM on Friday 24 Oct 2014 (Local Time) from KCKB Reporting Station
Clear Clear  
Wind Chill: 16°   Ceiling: Unl
Heat Index: 16°   Visibility: 9mi
Dew Point:   Wind: 5mph
Humidity: 41%   Direction: 310°NW
Pressure: 30.03"   Gusts: NA
Location:  39.29°N, 80.4°W
Report Text: KCKB 242053Z 31004KT 9SM CLR 16/03 A3003 RMK AO2 SLP164 T01610028 56010
Loading
Personal Weather Stations






























Interactive Weather Map
Tropical Storm Tracking
New forecast layout! Learn more

10-Day Weather Forecast

Advertisements
Track Severe Weather on mobile